sensor_id;sensor_type;location;lat;lon;timestamp;P1;durP1;ratioP1;P2;durP2;ratioP2
37365;SDS011;23239;51.504;7.456;2022-07-10T00:00:11;5.6;;;1.4;;
37365;SDS011;23239;51.504;7.456;2022-07-10T00:05:10;4.5;;;1.3;;
37365;SDS011;23239;51.504;7.456;2022-07-10T00:10:10;4.7;;;1.2;;
37365;SDS011;23239;51.504;7.456;2022-07-10T00:15:10;5.2;;;1.5;;
37365;SDS011;23239;51.504;7.456;2022-07-10T00:20:11;5.4;;;1;;
37365;SDS011;23239;51.504;7.456;2022-07-10T00:25:11;7.3;;;1.4;;
37365;SDS011;23239;51.504;7.456;2022-07-10T00:30:10;10.4;;;1.4;;
37365;SDS011;23239;51.504;7.456;2022-07-10T00:35:10;4.5;;;1.3;;
37365;SDS011;23239;51.504;7.456;2022-07-10T00:40:10;4.2;;;1.2;;
37365;SDS011;23239;51.504;7.456;2022-07-10T00:45:10;5.6;;;1.3;;
37365;SDS011;23239;51.504;7.456;2022-07-10T00:50:10;2.8;;;0.9;;
37365;SDS011;23239;51.504;7.456;2022-07-10T00:55:10;4.5;;;1.2;;
37365;SDS011;23239;51.504;7.456;2022-07-10T01:00:10;5.7;;;1.3;;
37365;SDS011;23239;51.504;7.456;2022-07-10T01:05:10;7.1;;;1.4;;
37365;SDS011;23239;51.504;7.456;2022-07-10T01:10:10;4.2;;;0.8;;
37365;SDS011;23239;51.504;7.456;2022-07-10T01:15:10;5.5;;;1.2;;
37365;SDS011;23239;51.504;7.456;2022-07-10T01:20:10;4.9;;;1.2;;
37365;SDS011;23239;51.504;7.456;2022-07-10T01:25:10;7.7;;;1.5;;
37365;SDS011;23239;51.504;7.456;2022-07-10T01:30:10;6.7;;;1.3;;
37365;SDS011;23239;51.504;7.456;2022-07-10T01:35:10;7.1;;;1.2;;
37365;SDS011;23239;51.504;7.456;2022-07-10T01:40:10;7;;;1.5;;
37365;SDS011;23239;51.504;7.456;2022-07-10T01:45:10;6;;;1.1;;
37365;SDS011;23239;51.504;7.456;2022-07-10T01:50:10;6.7;;;1.4;;
37365;SDS011;23239;51.504;7.456;2022-07-10T01:55:10;5;;;1.1;;
37365;SDS011;23239;51.504;7.456;2022-07-10T02:00:10;4;;;1.4;;
37365;SDS011;23239;51.504;7.456;2022-07-10T02:05:10;4.6;;;1.1;;
37365;SDS011;23239;51.504;7.456;2022-07-10T02:10:10;5;;;1.3;;
37365;SDS011;23239;51.504;7.456;2022-07-10T02:15:10;5.2;;;1.5;;
37365;SDS011;23239;51.504;7.456;2022-07-10T02:20:10;7.1;;;1.6;;
37365;SDS011;23239;51.504;7.456;2022-07-10T02:25:10;4.6;;;1.2;;
37365;SDS011;23239;51.504;7.456;2022-07-10T02:30:10;6.4;;;1.2;;
37365;SDS011;23239;51.504;7.456;2022-07-10T02:35:10;7.5;;;1.4;;
37365;SDS011;23239;51.504;7.456;2022-07-10T02:40:10;8.7;;;1.5;;
37365;SDS011;23239;51.504;7.456;2022-07-10T02:45:10;7.3;;;1.4;;
37365;SDS011;23239;51.504;7.456;2022-07-10T02:50:10;5.5;;;1.5;;
37365;SDS011;23239;51.504;7.456;2022-07-10T02:55:10;5.2;;;1.3;;
37365;SDS011;23239;51.504;7.456;2022-07-10T03:00:10;5.5;;;1.4;;
37365;SDS011;23239;51.504;7.456;2022-07-10T03:05:10;6.2;;;1.5;;
37365;SDS011;23239;51.504;7.456;2022-07-10T03:10:10;5.9;;;1.2;;
37365;SDS011;23239;51.504;7.456;2022-07-10T03:15:10;8.3;;;1.3;;
37365;SDS011;23239;51.504;7.456;2022-07-10T03:20:10;6.7;;;1.4;;
37365;SDS011;23239;51.504;7.456;2022-07-10T03:25:10;6.8;;;1.6;;
37365;SDS011;23239;51.504;7.456;2022-07-10T03:30:10;8.7;;;1.7;;
37365;SDS011;23239;51.504;7.456;2022-07-10T03:35:10;6.8;;;1.6;;
37365;SDS011;23239;51.504;7.456;2022-07-10T03:40:10;6.6;;;1.3;;
37365;SDS011;23239;51.504;7.456;2022-07-10T03:45:10;5.5;;;1.3;;
37365;SDS011;23239;51.504;7.456;2022-07-10T03:50:10;6.1;;;1.6;;
37365;SDS011;23239;51.504;7.456;2022-07-10T03:55:10;7.4;;;1.5;;
37365;SDS011;23239;51.504;7.456;2022-07-10T04:00:10;5.7;;;1.2;;
37365;SDS011;23239;51.504;7.456;2022-07-10T04:05:10;6.1;;;1.3;;
37365;SDS011;23239;51.504;7.456;2022-07-10T04:10:10;5.1;;;1.6;;
37365;SDS011;23239;51.504;7.456;2022-07-10T04:15:10;5.2;;;1.3;;
37365;SDS011;23239;51.504;7.456;2022-07-10T04:20:10;8.4;;;1.5;;
37365;SDS011;23239;51.504;7.456;2022-07-10T04:25:10;4.7;;;1.2;;
37365;SDS011;23239;51.504;7.456;2022-07-10T04:30:10;6.2;;;1.3;;
37365;SDS011;23239;51.504;7.456;2022-07-10T04:35:10;8.5;;;1.5;;
37365;SDS011;23239;51.504;7.456;2022-07-10T04:40:10;8.3;;;1.4;;
37365;SDS011;23239;51.504;7.456;2022-07-10T04:45:10;8.3;;;1.6;;
37365;SDS011;23239;51.504;7.456;2022-07-10T04:50:10;5.6;;;1.1;;
37365;SDS011;23239;51.504;7.456;2022-07-10T04:55:10;7.5;;;1.4;;
37365;SDS011;23239;51.504;7.456;2022-07-10T05:00:10;5.8;;;1.5;;
37365;SDS011;23239;51.504;7.456;2022-07-10T05:05:10;8.9;;;1.9;;
37365;SDS011;23239;51.504;7.456;2022-07-10T05:10:10;7.2;;;1.5;;
37365;SDS011;23239;51.504;7.456;2022-07-10T05:15:10;6.1;;;1.7;;
37365;SDS011;23239;51.504;7.456;2022-07-10T05:20:10;5;;;1.4;;
37365;SDS011;23239;51.504;7.456;2022-07-10T05:25:10;6.6;;;1.6;;
37365;SDS011;23239;51.504;7.456;2022-07-10T05:30:10;9.9;;;1.9;;
37365;SDS011;23239;51.504;7.456;2022-07-10T05:35:10;7.6;;;1.6;;
37365;SDS011;23239;51.504;7.456;2022-07-10T05:40:10;6.1;;;1.4;;
37365;SDS011;23239;51.504;7.456;2022-07-10T05:45:10;7.5;;;1.9;;
37365;SDS011;23239;51.504;7.456;2022-07-10T05:50:10;7.9;;;1.6;;
37365;SDS011;23239;51.504;7.456;2022-07-10T05:55:10;7.6;;;1.7;;
37365;SDS011;23239;51.504;7.456;2022-07-10T06:00:10;8.8;;;1.6;;
37365;SDS011;23239;51.504;7.456;2022-07-10T06:05:10;7.4;;;1.8;;
37365;SDS011;23239;51.504;7.456;2022-07-10T06:10:10;8.1;;;1.9;;
37365;SDS011;23239;51.504;7.456;2022-07-10T06:15:10;10.6;;;1.5;;
37365;SDS011;23239;51.504;7.456;2022-07-10T06:20:10;6.8;;;1.4;;
37365;SDS011;23239;51.504;7.456;2022-07-10T06:25:10;7.3;;;1.4;;
37365;SDS011;23239;51.504;7.456;2022-07-10T06:30:10;7.4;;;1.6;;
37365;SDS011;23239;51.504;7.456;2022-07-10T06:35:10;8.4;;;1.6;;
37365;SDS011;23239;51.504;7.456;2022-07-10T06:40:11;5.5;;;1.2;;
37365;SDS011;23239;51.504;7.456;2022-07-10T06:45:10;5.3;;;1.4;;
37365;SDS011;23239;51.504;7.456;2022-07-10T06:50:10;5.8;;;1.6;;
37365;SDS011;23239;51.504;7.456;2022-07-10T06:55:10;9;;;1.3;;
37365;SDS011;23239;51.504;7.456;2022-07-10T07:00:10;7.6;;;1.5;;
37365;SDS011;23239;51.504;7.456;2022-07-10T07:05:10;6.2;;;1.1;;
37365;SDS011;23239;51.504;7.456;2022-07-10T07:10:10;7.6;;;1.3;;
37365;SDS011;23239;51.504;7.456;2022-07-10T07:15:10;5.3;;;1.2;;
37365;SDS011;23239;51.504;7.456;2022-07-10T07:20:10;7.3;;;1.2;;
37365;SDS011;23239;51.504;7.456;2022-07-10T07:25:10;5.2;;;1.2;;
37365;SDS011;23239;51.504;7.456;2022-07-10T07:30:11;8.5;;;1.3;;
37365;SDS011;23239;51.504;7.456;2022-07-10T07:35:11;7.6;;;1.3;;
37365;SDS011;23239;51.504;7.456;2022-07-10T07:40:11;9.5;;;1.5;;
37365;SDS011;23239;51.504;7.456;2022-07-10T07:45:10;6.8;;;1.2;;
37365;SDS011;23239;51.504;7.456;2022-07-10T07:50:10;12;;;1.9;;
37365;SDS011;23239;51.504;7.456;2022-07-10T07:55:10;7.1;;;1.2;;
37365;SDS011;23239;51.504;7.456;2022-07-10T08:00:11;5.4;;;1.3;;
37365;SDS011;23239;51.504;7.456;2022-07-10T08:05:10;5.7;;;1.2;;
37365;SDS011;23239;51.504;7.456;2022-07-10T08:10:11;8.1;;;1.5;;
37365;SDS011;23239;51.504;7.456;2022-07-10T08:15:10;8.6;;;1.4;;
37365;SDS011;23239;51.504;7.456;2022-07-10T08:20:11;5.1;;;1.2;;
37365;SDS011;23239;51.504;7.456;2022-07-10T08:25:10;4.9;;;1.5;;
37365;SDS011;23239;51.504;7.456;2022-07-10T08:30:10;7.1;;;1.4;;
37365;SDS011;23239;51.504;7.456;2022-07-10T08:35:10;6.5;;;1.3;;
37365;SDS011;23239;51.504;7.456;2022-07-10T08:40:11;7;;;1.4;;
37365;SDS011;23239;51.504;7.456;2022-07-10T08:45:10;9.5;;;1.8;;
37365;SDS011;23239;51.504;7.456;2022-07-10T08:50:15;8.8;;;1.5;;
37365;SDS011;23239;51.504;7.456;2022-07-10T08:55:11;7.7;;;1.5;;
37365;SDS011;23239;51.504;7.456;2022-07-10T09:00:10;7.6;;;1.3;;
37365;SDS011;23239;51.504;7.456;2022-07-10T09:05:10;6.6;;;1.4;;
37365;SDS011;23239;51.504;7.456;2022-07-10T09:10:11;6.8;;;1.9;;
37365;SDS011;23239;51.504;7.456;2022-07-10T09:15:14;10.8;;;2;;
37365;SDS011;23239;51.504;7.456;2022-07-10T09:20:23;12.7;;;2.1;;
37365;SDS011;23239;51.504;7.456;2022-07-10T09:25:11;6;;;2;;
37365;SDS011;23239;51.504;7.456;2022-07-10T09:30:10;7.7;;;1.8;;
37365;SDS011;23239;51.504;7.456;2022-07-10T09:35:10;7.7;;;2.1;;
37365;SDS011;23239;51.504;7.456;2022-07-10T09:40:10;10;;;2.4;;
37365;SDS011;23239;51.504;7.456;2022-07-10T09:45:18;7;;;1.8;;
37365;SDS011;23239;51.504;7.456;2022-07-10T09:50:26;6.9;;;1.8;;
37365;SDS011;23239;51.504;7.456;2022-07-10T09:55:10;7.3;;;2.1;;
37365;SDS011;23239;51.504;7.456;2022-07-10T10:00:10;7;;;2.1;;
37365;SDS011;23239;51.504;7.456;2022-07-10T10:05:10;5.1;;;2;;
37365;SDS011;23239;51.504;7.456;2022-07-10T10:10:10;5.6;;;2.1;;
37365;SDS011;23239;51.504;7.456;2022-07-10T10:15:10;3.4;;;1.7;;
37365;SDS011;23239;51.504;7.456;2022-07-10T10:20:10;6.6;;;1.9;;
37365;SDS011;23239;51.504;7.456;2022-07-10T10:25:10;5.2;;;1.6;;
37365;SDS011;23239;51.504;7.456;2022-07-10T10:30:10;6.5;;;2.1;;
37365;SDS011;23239;51.504;7.456;2022-07-10T10:35:10;4.4;;;2;;
37365;SDS011;23239;51.504;7.456;2022-07-10T10:40:11;3.5;;;1.4;;
37365;SDS011;23239;51.504;7.456;2022-07-10T10:45:42;4.4;;;1.8;;
37365;SDS011;23239;51.504;7.456;2022-07-10T10:50:10;4.7;;;2.1;;
37365;SDS011;23239;51.504;7.456;2022-07-10T10:55:10;4.1;;;2.2;;
37365;SDS011;23239;51.504;7.456;2022-07-10T11:00:11;5.5;;;2.9;;
37365;SDS011;23239;51.504;7.456;2022-07-10T11:05:42;5.2;;;2.7;;
37365;SDS011;23239;51.504;7.456;2022-07-10T11:10:31;4;;;2.6;;
37365;SDS011;23239;51.504;7.456;2022-07-10T11:15:13;5.8;;;2.7;;
37365;SDS011;23239;51.504;7.456;2022-07-10T11:20:10;4.5;;;2.6;;
37365;SDS011;23239;51.504;7.456;2022-07-10T11:25:16;5;;;2.8;;
37365;SDS011;23239;51.504;7.456;2022-07-10T11:30:10;5.8;;;2.9;;
37365;SDS011;23239;51.504;7.456;2022-07-10T11:35:11;4.6;;;3;;
37365;SDS011;23239;51.504;7.456;2022-07-10T11:40:11;7.6;;;4.5;;
37365;SDS011;23239;51.504;7.456;2022-07-10T11:45:20;7.3;;;4.8;;
37365;SDS011;23239;51.504;7.456;2022-07-10T11:50:10;7.3;;;4.6;;
37365;SDS011;23239;51.504;7.456;2022-07-10T11:55:14;6.2;;;3.9;;
37365;SDS011;23239;51.504;7.456;2022-07-10T12:00:20;7.1;;;3.9;;
37365;SDS011;23239;51.504;7.456;2022-07-10T12:05:28;5.6;;;4;;
37365;SDS011;23239;51.504;7.456;2022-07-10T12:10:10;6.7;;;3.9;;
37365;SDS011;23239;51.504;7.456;2022-07-10T12:15:10;10.3;;;5.3;;
37365;SDS011;23239;51.504;7.456;2022-07-10T12:20:10;7;;;4;;
37365;SDS011;23239;51.504;7.456;2022-07-10T12:25:10;5.4;;;4.1;;
37365;SDS011;23239;51.504;7.456;2022-07-10T12:30:10;8.5;;;5.1;;
37365;SDS011;23239;51.504;7.456;2022-07-10T12:35:10;10.9;;;8.4;;
37365;SDS011;23239;51.504;7.456;2022-07-10T12:40:10;10.8;;;8.8;;
37365;SDS011;23239;51.504;7.456;2022-07-10T12:45:11;7;;;5.5;;
37365;SDS011;23239;51.504;7.456;2022-07-10T12:50:11;3.2;;;2.9;;
37365;SDS011;23239;51.504;7.456;2022-07-10T12:55:11;2;;;1.8;;
37365;SDS011;23239;51.504;7.456;2022-07-10T13:00:11;1.4;;;1.3;;
37365;SDS011;23239;51.504;7.456;2022-07-10T13:05:10;1.1;;;1.1;;
37365;SDS011;23239;51.504;7.456;2022-07-10T13:10:10;1.4;;;1.3;;
37365;SDS011;23239;51.504;7.456;2022-07-10T13:15:10;1.1;;;1;;
37365;SDS011;23239;51.504;7.456;2022-07-10T13:20:10;1;;;1;;
37365;SDS011;23239;51.504;7.456;2022-07-10T13:25:10;2.1;;;1.2;;
37365;SDS011;23239;51.504;7.456;2022-07-10T13:30:10;1.2;;;0.8;;
37365;SDS011;23239;51.504;7.456;2022-07-10T13:35:10;1.2;;;0.7;;
37365;SDS011;23239;51.504;7.456;2022-07-10T13:40:10;0.9;;;0.6;;
37365;SDS011;23239;51.504;7.456;2022-07-10T13:45:10;1.8;;;1;;
37365;SDS011;23239;51.504;7.456;2022-07-10T13:50:10;1.4;;;0.9;;
37365;SDS011;23239;51.504;7.456;2022-07-10T13:55:10;2.3;;;1;;
37365;SDS011;23239;51.504;7.456;2022-07-10T14:00:10;3.6;;;1.1;;
37365;SDS011;23239;51.504;7.456;2022-07-10T14:05:10;4.8;;;1.4;;
37365;SDS011;23239;51.504;7.456;2022-07-10T14:10:10;3.2;;;1.7;;
37365;SDS011;23239;51.504;7.456;2022-07-10T14:15:10;3.4;;;1.3;;
37365;SDS011;23239;51.504;7.456;2022-07-10T14:20:10;2.9;;;1.2;;
37365;SDS011;23239;51.504;7.456;2022-07-10T14:25:11;1.2;;;0.8;;
37365;SDS011;23239;51.504;7.456;2022-07-10T14:30:10;1.5;;;0.7;;
37365;SDS011;23239;51.504;7.456;2022-07-10T14:35:10;2.9;;;1.2;;
37365;SDS011;23239;51.504;7.456;2022-07-10T14:40:11;2.2;;;1.1;;
37365;SDS011;23239;51.504;7.456;2022-07-10T14:45:10;3.7;;;1.1;;
37365;SDS011;23239;51.504;7.456;2022-07-10T14:50:10;3.6;;;1.1;;
37365;SDS011;23239;51.504;7.456;2022-07-10T14:55:10;4;;;1.3;;
37365;SDS011;23239;51.504;7.456;2022-07-10T15:00:11;5.7;;;1.8;;
37365;SDS011;23239;51.504;7.456;2022-07-10T15:05:10;4.7;;;1.6;;
37365;SDS011;23239;51.504;7.456;2022-07-10T15:10:10;3.4;;;2.1;;
37365;SDS011;23239;51.504;7.456;2022-07-10T15:15:10;4.1;;;1.6;;
37365;SDS011;23239;51.504;7.456;2022-07-10T15:20:11;4.3;;;2.2;;
37365;SDS011;23239;51.504;7.456;2022-07-10T15:25:10;5.7;;;1.6;;
37365;SDS011;23239;51.504;7.456;2022-07-10T15:30:10;3.1;;;1.5;;
37365;SDS011;23239;51.504;7.456;2022-07-10T15:35:11;2.9;;;1.5;;
37365;SDS011;23239;51.504;7.456;2022-07-10T15:40:10;3.4;;;1.4;;
37365;SDS011;23239;51.504;7.456;2022-07-10T15:45:10;4;;;1.8;;
37365;SDS011;23239;51.504;7.456;2022-07-10T15:50:10;3.5;;;1.9;;
37365;SDS011;23239;51.504;7.456;2022-07-10T15:55:10;2.5;;;1.6;;
37365;SDS011;23239;51.504;7.456;2022-07-10T16:00:10;4.6;;;2.1;;
37365;SDS011;23239;51.504;7.456;2022-07-10T16:05:10;5.3;;;2.1;;
37365;SDS011;23239;51.504;7.456;2022-07-10T16:10:10;4.2;;;2.2;;
37365;SDS011;23239;51.504;7.456;2022-07-10T16:15:10;4.4;;;2.2;;
37365;SDS011;23239;51.504;7.456;2022-07-10T16:20:11;3.8;;;2;;
37365;SDS011;23239;51.504;7.456;2022-07-10T16:25:10;4.6;;;1.9;;
37365;SDS011;23239;51.504;7.456;2022-07-10T16:30:10;5.1;;;1.6;;
37365;SDS011;23239;51.504;7.456;2022-07-10T16:35:10;3.3;;;1.5;;
37365;SDS011;23239;51.504;7.456;2022-07-10T16:40:10;2.8;;;1.4;;
37365;SDS011;23239;51.504;7.456;2022-07-10T16:45:10;4.1;;;1.9;;
37365;SDS011;23239;51.504;7.456;2022-07-10T16:50:10;4;;;1.8;;
37365;SDS011;23239;51.504;7.456;2022-07-10T16:55:10;3.9;;;1.8;;
37365;SDS011;23239;51.504;7.456;2022-07-10T17:00:11;3.4;;;1.8;;
37365;SDS011;23239;51.504;7.456;2022-07-10T17:05:11;3.8;;;2;;
37365;SDS011;23239;51.504;7.456;2022-07-10T17:10:11;3.3;;;1.8;;
37365;SDS011;23239;51.504;7.456;2022-07-10T17:15:10;3;;;1.7;;
37365;SDS011;23239;51.504;7.456;2022-07-10T17:20:11;5;;;2.1;;
37365;SDS011;23239;51.504;7.456;2022-07-10T17:25:10;3.5;;;1.8;;
37365;SDS011;23239;51.504;7.456;2022-07-10T17:30:10;2.6;;;1.4;;
37365;SDS011;23239;51.504;7.456;2022-07-10T17:35:10;3.3;;;1.4;;
37365;SDS011;23239;51.504;7.456;2022-07-10T17:40:11;4.4;;;1.9;;
37365;SDS011;23239;51.504;7.456;2022-07-10T17:45:10;3.3;;;1.5;;
37365;SDS011;23239;51.504;7.456;2022-07-10T17:50:11;3.4;;;1.4;;
37365;SDS011;23239;51.504;7.456;2022-07-10T17:55:10;3.5;;;1.6;;
37365;SDS011;23239;51.504;7.456;2022-07-10T18:00:11;4.1;;;1.4;;
37365;SDS011;23239;51.504;7.456;2022-07-10T18:05:10;5;;;1.7;;
37365;SDS011;23239;51.504;7.456;2022-07-10T18:10:10;4.1;;;1.7;;
37365;SDS011;23239;51.504;7.456;2022-07-10T18:15:10;3.9;;;1.5;;
37365;SDS011;23239;51.504;7.456;2022-07-10T18:20:11;3.4;;;1.5;;
37365;SDS011;23239;51.504;7.456;2022-07-10T18:25:10;4.1;;;1.6;;
37365;SDS011;23239;51.504;7.456;2022-07-10T18:30:11;5.7;;;2.9;;
37365;SDS011;23239;51.504;7.456;2022-07-10T18:35:10;4.3;;;1.4;;
37365;SDS011;23239;51.504;7.456;2022-07-10T18:40:10;2.5;;;1.3;;
37365;SDS011;23239;51.504;7.456;2022-07-10T18:45:10;5.1;;;1.8;;
37365;SDS011;23239;51.504;7.456;2022-07-10T18:50:10;4.1;;;1.2;;
37365;SDS011;23239;51.504;7.456;2022-07-10T18:55:10;4.5;;;1.5;;
37365;SDS011;23239;51.504;7.456;2022-07-10T19:00:11;4.9;;;1.5;;
37365;SDS011;23239;51.504;7.456;2022-07-10T19:05:10;3.9;;;1.5;;
37365;SDS011;23239;51.504;7.456;2022-07-10T19:10:10;6.9;;;1.9;;
37365;SDS011;23239;51.504;7.456;2022-07-10T19:15:10;3.5;;;1.5;;
37365;SDS011;23239;51.504;7.456;2022-07-10T19:20:11;4.3;;;1.4;;
37365;SDS011;23239;51.504;7.456;2022-07-10T19:25:11;3.9;;;1.5;;
37365;SDS011;23239;51.504;7.456;2022-07-10T19:30:10;4.1;;;1.4;;
37365;SDS011;23239;51.504;7.456;2022-07-10T19:35:11;5;;;1.7;;
37365;SDS011;23239;51.504;7.456;2022-07-10T19:40:11;3.6;;;1.5;;
37365;SDS011;23239;51.504;7.456;2022-07-10T19:45:11;5.5;;;1.9;;
37365;SDS011;23239;51.504;7.456;2022-07-10T19:50:10;5.1;;;1.7;;
37365;SDS011;23239;51.504;7.456;2022-07-10T19:55:10;5.1;;;1.7;;
37365;SDS011;23239;51.504;7.456;2022-07-10T20:00:11;5.9;;;1.8;;
37365;SDS011;23239;51.504;7.456;2022-07-10T20:05:11;6;;;1.6;;
37365;SDS011;23239;51.504;7.456;2022-07-10T20:10:10;2.6;;;1.3;;
37365;SDS011;23239;51.504;7.456;2022-07-10T20:15:10;3.1;;;1.6;;
37365;SDS011;23239;51.504;7.456;2022-07-10T20:20:11;5.1;;;1.7;;
37365;SDS011;23239;51.504;7.456;2022-07-10T20:25:11;4;;;1.6;;
37365;SDS011;23239;51.504;7.456;2022-07-10T20:30:11;3.1;;;1.7;;
37365;SDS011;23239;51.504;7.456;2022-07-10T20:35:11;5.3;;;1.9;;
37365;SDS011;23239;51.504;7.456;2022-07-10T20:40:11;5.1;;;1.9;;
37365;SDS011;23239;51.504;7.456;2022-07-10T20:45:11;3.6;;;2;;
37365;SDS011;23239;51.504;7.456;2022-07-10T20:50:11;5.1;;;2;;
37365;SDS011;23239;51.504;7.456;2022-07-10T20:55:11;5.1;;;1.8;;
37365;SDS011;23239;51.504;7.456;2022-07-10T21:00:11;3.4;;;1.6;;
37365;SDS011;23239;51.504;7.456;2022-07-10T21:05:11;4.5;;;1.7;;
37365;SDS011;23239;51.504;7.456;2022-07-10T21:10:11;4;;;1.7;;
37365;SDS011;23239;51.504;7.456;2022-07-10T21:15:11;4.6;;;1.7;;
37365;SDS011;23239;51.504;7.456;2022-07-10T21:20:11;2.8;;;1.5;;
37365;SDS011;23239;51.504;7.456;2022-07-10T21:25:11;2.7;;;1.4;;
37365;SDS011;23239;51.504;7.456;2022-07-10T21:30:11;4.3;;;1.7;;
37365;SDS011;23239;51.504;7.456;2022-07-10T21:35:11;3.6;;;1.5;;
37365;SDS011;23239;51.504;7.456;2022-07-10T21:40:11;4.8;;;1.8;;
37365;SDS011;23239;51.504;7.456;2022-07-10T21:45:11;4.7;;;2.2;;
37365;SDS011;23239;51.504;7.456;2022-07-10T21:50:10;3.4;;;1.8;;
37365;SDS011;23239;51.504;7.456;2022-07-10T21:55:11;3.8;;;1.8;;
37365;SDS011;23239;51.504;7.456;2022-07-10T22:00:11;3.7;;;1.8;;
37365;SDS011;23239;51.504;7.456;2022-07-10T22:05:11;7;;;2;;
37365;SDS011;23239;51.504;7.456;2022-07-10T22:10:11;4.5;;;2.1;;
37365;SDS011;23239;51.504;7.456;2022-07-10T22:15:11;2.6;;;1.8;;
37365;SDS011;23239;51.504;7.456;2022-07-10T22:20:11;4.2;;;1.8;;
37365;SDS011;23239;51.504;7.456;2022-07-10T22:25:11;3.8;;;1.9;;
37365;SDS011;23239;51.504;7.456;2022-07-10T22:30:11;4.9;;;2.2;;
37365;SDS011;23239;51.504;7.456;2022-07-10T22:35:11;4.5;;;2.1;;
37365;SDS011;23239;51.504;7.456;2022-07-10T22:40:11;2.9;;;1.9;;
37365;SDS011;23239;51.504;7.456;2022-07-10T22:45:11;3.9;;;2.4;;
37365;SDS011;23239;51.504;7.456;2022-07-10T22:50:11;3.3;;;1.9;;
37365;SDS011;23239;51.504;7.456;2022-07-10T22:55:11;3.9;;;2.4;;
37365;SDS011;23239;51.504;7.456;2022-07-10T23:00:11;5.3;;;2.4;;
37365;SDS011;23239;51.504;7.456;2022-07-10T23:05:11;5.2;;;2.1;;
37365;SDS011;23239;51.504;7.456;2022-07-10T23:10:11;4.8;;;2.2;;
37365;SDS011;23239;51.504;7.456;2022-07-10T23:15:11;8.4;;;3.5;;
37365;SDS011;23239;51.504;7.456;2022-07-10T23:20:11;6.8;;;3.3;;
37365;SDS011;23239;51.504;7.456;2022-07-10T23:25:11;13.9;;;4.2;;
37365;SDS011;23239;51.504;7.456;2022-07-10T23:30:11;9.3;;;4.1;;
37365;SDS011;23239;51.504;7.456;2022-07-10T23:35:11;9;;;3.8;;
37365;SDS011;23239;51.504;7.456;2022-07-10T23:40:11;9.3;;;3.6;;
37365;SDS011;23239;51.504;7.456;2022-07-10T23:45:11;7.5;;;2.9;;
37365;SDS011;23239;51.504;7.456;2022-07-10T23:50:11;6.8;;;3.1;;
37365;SDS011;23239;51.504;7.456;2022-07-10T23:55:11;4.7;;;2.6;;
